• Join FlightAware (Why Join?)
  • Login
  • US Flag 
10:38AM EST


 

Airport Tracker/Info


-or-


 

Live Flight TrackerFlight Track Log ✈ UAL3756 ✈ 28-Apr-2013 ✈ KMIA - KORD

Flight Track Log - Related Links

Times and Time Zones

All times are in EDT time to prevent confusion due to time zone crossing. See the UAL3756 flight status page for this flight to view local times or setup timezone preferences in your user account.

Time Position Orientation Groundspeed Altitude Reporting Facility
EDT Latitude Longitude Course Direction KTS MPH feet Rate Location/Type
11:36AM 25.7981 -80.2744 82° East 148 170 700  Level Miami Center
11:37AM 25.8033 -80.2331 82° East 192 221 2,400 1,740 Climbing Miami Center
11:38AM 25.8089 -80.1664 85° East 248 285 4,000 1,980 Climbing Miami Center
11:39AM 25.8661 -80.1378 24° Northeast 285 328 6,500 2,280 Climbing Miami Center
11:40AM 25.9003 -80.1942 304° West 318 366 8,500 2,160 Climbing Miami Center
11:41AM 25.9381 -80.2783 297° West 324 373 10,700 1,560 Climbing Miami Center
11:42AM 25.9794 -80.3767 295° West 325 374 11,700 1,500 Climbing Miami Center
11:43AM 26.0231 -80.4797 295° West 348 400 13,700 1,980 Climbing Miami Center
11:44AM 26.0664 -80.5850 295° West 368 423 15,700 1,980 Climbing Miami Center
11:45AM 26.1286 -80.6772 307° West 373 429 17,700 1,740 Climbing Miami Center
11:46AM 26.2100 -80.7586 318° Northwest 383 441 19,200 1,560 Climbing Miami Center
11:47AM 26.2972 -80.8517 316° Northwest 383 441 20,900 1,560 Climbing Miami Center
11:48AM 26.3786 -80.9381 316° Northwest 395 455 22,400 1,380 Climbing Miami Center
11:49AM 26.4658 -81.0244 318° Northwest 413 475 23,700 1,200 Climbing Miami Center
11:50AM 26.5533 -81.1089 319° Northwest 413 475 24,900 1,200 Climbing Miami Center
11:51AM 26.6403 -81.1981 317° Northwest 413 475 26,100 1,140 Climbing Miami Center
11:52AM 26.7172 -81.2797 317° Northwest 413 475 27,200 900 Climbing Miami Center
11:53AM 26.8064 -81.3692 318° Northwest 413 475 28,000 360 Climbing Miami Center
11:54AM 26.9011 -81.4800 314° West 431 496 28,000 300 Level Miami Center
11:55AM 26.9875 -81.5814 314° West 440 506 28,600 420 Climbing Miami Center
11:56AM 27.0786 -81.6667 320° Northwest 435 501 28,900 540 Climbing Miami Center
11:57AM 27.1839 -81.7061 342° North 426 490 29,700 1,320 Climbing Miami Center
11:58AM 27.2950 -81.7481 341° North 426 490 31,600 1,380 Climbing Miami Center
11:59AM 27.4125 -81.7950 340° North 412 474 32,500 1,020 Climbing Miami Center
12:00PM 27.5197 -81.8325 343° North 407 468 33,700 420 Climbing Miami Center
12:02PM 27.7519 -81.9172 342° North 413 475 34,000 60 Climbing Jacksonville Center
12:03PM 27.8836 -81.9722 340° North 446 513 34,000  Level Jacksonville Center
12:04PM 28.0008 -82.0228 339° North 451 519 34,000  Level Jacksonville Center
12:05PM 28.1142 -82.0925 332° Northwest 451 519 34,000  Level Jacksonville Center
12:06PM 28.2231 -82.1622 331° Northwest 451 519 34,000  Level Jacksonville Center
12:07PM 28.3297 -82.2300 331° Northwest 446 513 34,000  Level Jacksonville Center
12:08PM 28.4367 -82.3000 330° Northwest 441 507 34,000  Level Jacksonville Center
12:09PM 28.5453 -82.3656 332° Northwest 441 507 34,000 -60 Level Jacksonville Center
12:10PM 28.6519 -82.4358 330° Northwest 441 507 33,900  Descending Jacksonville Center
12:11PM 28.7544 -82.5042 330° Northwest 436 502 34,000  Climbing Jacksonville Center
12:12PM 28.8633 -82.5725 331° Northwest 436 502 34,000  Level Jacksonville Center
12:13PM 28.9719 -82.6411 331° Northwest 442 509 34,000 900 Level Jacksonville Center
12:14PM 29.0764 -82.7097 330° Northwest 437 503 35,900 960 Climbing Jacksonville Center
12:15PM 29.1789 -82.7736 331° Northwest 427 491 36,000  Climbing Jacksonville Center
12:16PM 29.2789 -82.8403 330° Northwest 422 486 36,000 -60 Level Jacksonville Center
12:17PM 29.3856 -82.9092 331° Northwest 428 493 35,900  Descending Jacksonville Center
12:18PM 29.4878 -82.9761 330° Northwest 428 493 36,000  Climbing Jacksonville Center
12:19PM 29.5983 -83.0478 331° Northwest 438 504 36,000 -60 Level Jacksonville Center
12:20PM 29.7111 -83.1006 338° Northwest 438 504 35,900  Descending Jacksonville Center
12:21PM 29.8278 -83.1558 338° Northwest 438 504 36,000  Climbing Jacksonville Center
12:22PM 29.9425 -83.2089 338° Northwest 444 511 36,000  Level Jacksonville Center
12:23PM 30.0425 -83.2550 338° Northwest 433 498 36,000  Level Jacksonville Center
12:24PM 30.1594 -83.3083 338° Northwest 433 498 36,000  Level Jacksonville Center
12:25PM 30.2719 -83.3617 338° Northwest 433 498 36,000 -60 Level Jacksonville Center
12:26PM 30.3908 -83.4150 339° North 433 498 35,900 -60 Descending Jacksonville Center
12:27PM 30.5033 -83.4689 338° Northwest 433 498 35,900  Level Jacksonville Center
12:28PM 30.6178 -83.5203 339° North 433 498 35,900  Level Jacksonville Center
12:29PM 30.7261 -83.5742 337° Northwest 433 498 36,000  Climbing Jacksonville Center
12:30PM 30.8406 -83.6306 337° Northwest 428 493 36,000  Level Jacksonville Center
12:31PM 30.9511 -83.6822 338° Northwest 428 493 36,000  Level Jacksonville Center
12:32PM 31.0633 -83.7367 337° Northwest 434 499 36,000  Level Jacksonville Center
12:33PM 31.1758 -83.7911 338° Northwest 434 499 36,000  Level Jacksonville Center
12:36PM 31.4522 -83.9244 338° Northwest 446 513 36,000  Level Atlanta Center
12:37PM 31.5672 -83.9706 341° North 446 513 36,000  Level Atlanta Center
12:38PM 31.6903 -83.9997 349° North 440 506 36,000  Level Atlanta Center
12:39PM 31.8239 -84.0267 350° North 440 506 36,000  Level Atlanta Center
12:40PM 31.9428 -84.0536 349° North 440 506 36,000  Level Atlanta Center
12:41PM 32.0617 -84.0781 350° North 440 506 36,000  Level Atlanta Center
12:42PM 32.1828 -84.1050 349° North 435 501 36,000  Level Atlanta Center
12:43PM 32.3017 -84.1322 349° North 430 495 36,000  Level Atlanta Center
12:44PM 32.4250 -84.1619 349° North 430 495 36,000  Level Atlanta Center
12:45PM 32.5458 -84.1867 350° North 430 495 36,000  Level Atlanta Center
12:46PM 32.6650 -84.2164 348° North 430 495 36,000  Level Atlanta Center
12:47PM 32.7858 -84.2439 349° North 430 495 36,000  Level Atlanta Center
12:48PM 32.9069 -84.2689 350° North 430 495 36,000 60 Level Atlanta Center
12:49PM 33.0258 -84.2989 348° North 430 495 36,200 960 Climbing Atlanta Center
12:50PM 33.1406 -84.3242 350° North 425 489 38,000 900 Climbing Atlanta Center
12:51PM 33.2533 -84.3494 349° North 412 474 38,000  Level Atlanta Center
12:52PM 33.3681 -84.3747 350° North 412 474 38,000  Level Atlanta Center
12:53PM 33.4722 -84.4000 349° North 412 474 38,000  Level Atlanta Center
12:54PM 33.5869 -84.4278 349° North 417 480 38,000  Level Atlanta Center
12:55PM 33.7058 -84.4458 353° North 417 480 38,000  Level Atlanta Center
12:56PM 33.8206 -84.4614 354° North 422 486 38,000  Level Atlanta Center
12:57PM 33.9439 -84.4769 354° North 427 491 38,000  Level Atlanta Center
12:58PM 34.0606 -84.4903 355° North 427 491 38,000  Level Atlanta Center
12:59PM 34.1961 -84.5033 355° North 440 506 38,000  Level Atlanta Center
01:00PM 34.3150 -84.5167 355° North 440 506 38,000  Level Atlanta Center
01:01PM 34.4339 -84.5325 354° North 434 499 38,000  Level Atlanta Center
01:02PM 34.5425 -84.5456 354° North 434 499 38,000  Level Atlanta Center
01:03PM 34.6614 -84.5614 354° North 429 494 38,000  Level Atlanta Center
01:04PM 34.7864 -84.5775 354° North 423 487 38,000  Level Atlanta Center
01:05PM 34.9075 -84.5908 355° North 423 487 38,000  Level Atlanta Center
01:06PM 35.0264 -84.6069 354° North 423 487 38,000  Level Atlanta Center
01:07PM 35.1472 -84.6206 355° North 423 487 38,000  Level Atlanta Center
01:08PM 35.2683 -84.6367 354° North 423 487 38,000  Level Atlanta Center
01:09PM 35.3892 -84.6503 355° North 428 493 38,000  Level Atlanta Center
01:10PM 35.5144 -84.6664 354° North 433 498 38,000  Level Atlanta Center
01:11PM 35.6353 -84.6800 355° North 433 498 38,000  Level Atlanta Center
01:13PM 35.8497 -84.7067 354° North 444 511 38,000  Level Indianapolis Center
01:14PM 35.9703 -84.7217 354° North 444 511 38,000  Level Indianapolis Center
01:15PM 36.0914 -84.7381 354° North 445 512 38,000  Level Indianapolis Center
01:16PM 36.2153 -84.7539 354° North 448 516 38,000  Level Indianapolis Center
01:17PM 36.3411 -84.7625 357° North 453 521 38,000  Level Indianapolis Center
01:18PM 36.4983 -84.7572 North 468 539 38,000  Level Indianapolis Center
01:19PM 36.6286 -84.7558 360° North 469 540 38,000  Level Indianapolis Center
01:20PM 36.7608 -84.7533 North 472 543 38,000  Level Indianapolis Center
01:21PM 36.8936 -84.7506 North 475 547 38,000  Level Indianapolis Center
01:22PM 37.0258 -84.7483 North 476 548 38,000  Level Indianapolis Center
01:23PM 37.1606 -84.7447 North 478 550 38,000  Level Indianapolis Center
01:24PM 37.3133 -84.7694 353° North 471 542 38,000  Level Indianapolis Center
01:25PM 37.4397 -84.8047 348° North 465 535 38,000  Level Indianapolis Center
01:26PM 37.5664 -84.8403 347° North 466 536 38,000  Level Indianapolis Center
01:27PM 37.6936 -84.8758 348° North 466 536 38,000  Level Indianapolis Center
01:28PM 37.8206 -84.9106 348° North 465 535 38,000  Level Indianapolis Center
01:29PM 37.9522 -84.9444 349° North 476 548 38,000  Level Indianapolis Center
01:30PM 38.0800 -84.9803 348° North 470 541 38,000 -300 Level Indianapolis Center
01:31PM 38.2311 -85.0225 348° North 474 545 37,500 -600 Descending Indianapolis Center
01:32PM 38.3642 -85.0600 348° North 486 559 36,800 -720 Descending Indianapolis Center
01:33PM 38.4981 -85.0992 347° North 491 565 36,100 -420 Descending Indianapolis Center
01:34PM 38.6408 -85.1381 348° North 494 568 36,000 -60 Descending Indianapolis Center
01:35PM 38.7750 -85.1767 347° North 490 564 36,000  Level Indianapolis Center
01:36PM 38.9067 -85.2142 348° North 482 555 36,000 -780 Level Indianapolis Center
01:37PM 39.0394 -85.2517 348° North 485 558 34,500 -1,260 Descending Indianapolis Center
01:38PM 39.1736 -85.2914 347° North 491 565 33,500 -1,380 Descending Indianapolis Center
01:39PM 39.3047 -85.3283 348° North 483 556 31,700 -1,740 Descending Indianapolis Center
01:40PM 39.4594 -85.3731 347° North 485 558 30,000 -840 Descending Indianapolis Center
01:41PM 39.5897 -85.4114 347° North 480 552 30,000  Level Indianapolis Center
01:42PM 39.7178 -85.4483 347° North 473 544 30,000 -720 Level Indianapolis Center
01:43PM 39.8464 -85.4864 347° North 473 544 28,600 -1,500 Descending Indianapolis Center
01:45PM 39.9767 -85.5250 347° North 477 549 26,900 -1,320 Descending Indianapolis Center
01:46PM 40.1047 -85.5622 347° North 473 544 26,000 -480 Descending Indianapolis Center
01:46PM 40.2333 -85.5997 347° North 475 547 26,000 -360 Level Chicago Center
01:48PM 40.3667 -85.6389 347° North 486 559 25,300 -1,020 Descending Chicago Center
01:49PM 40.4836 -85.7022 338° Northwest 467 537 24,000 -660 Descending Chicago Center
01:50PM 40.5758 -85.8533 309° West 456 525 24,000  Level Chicago Center
01:51PM 40.6558 -85.9858 309° West 461 531 24,000 -120 Level Chicago Center
01:52PM 40.7250 -86.1044 308° West 469 540 23,800 -1,140 Descending Chicago Center
01:53PM 40.8172 -86.2578 309° West 443 510 21,700 -1,860 Descending Chicago Center
01:54PM 40.8894 -86.3794 308° West 424 488 20,000 -1,680 Descending Chicago Center
01:55PM 40.9597 -86.4972 308° West 411 473 18,300 -1,680 Descending Chicago Center
01:56PM 41.0278 -86.6133 308° West 401 461 16,600 -1,740 Descending Chicago Center
01:57PM 41.0989 -86.7331 308° West 388 447 14,800 -1,740 Descending Chicago Center
01:58PM 41.1642 -86.8456 308° West 389 448 13,100 -1,500 Descending Chicago Center
01:59PM 41.2283 -86.9569 307° West 384 442 11,700 -1,080 Descending Chicago Center
02:00PM 41.2919 -87.0661 308° West 379 436 11,000 -360 Descending Chicago Center
02:01PM 41.3678 -87.1953 308° West 372 428 11,000 60 Level Chicago Center
02:02PM 41.4167 -87.2500 320° Northwest 354 407 11,100  Climbing Chicago TRACON
02:03PM 41.4833 -87.3333 317° Northwest 347 399 11,000 -60 Descending Chicago TRACON
02:04PM 41.5667 -87.4167 323° Northwest 345 397 11,000  Level Chicago TRACON
02:04PM 41.5828 -87.4467 306° West 345 397 11,000 60 Level Chicago Center
02:05PM 41.6572 -87.5283 321° Northwest 349 402 11,100  Climbing Chicago Center
02:06PM 41.7467 -87.6292 320° Northwest 354 407 11,000 -180 Descending Chicago Center
02:06PM 41.7667 -87.6500 322° Northwest 342 394 10,900 -1,020 Descending Chicago TRACON
02:07PM 41.8333 -87.7333 317° Northwest 287 330 9,700 -1,500 Descending Chicago TRACON
02:08PM 41.8833 -87.8167 309° West 288 331 7,900 -1,320 Descending Chicago TRACON
02:09PM 41.8833 -87.9167 270° West 275 316 7,100 -480 Descending Chicago TRACON
02:10PM 41.8833 -88.0000 270° West 282 325 7,000 -1,140 Descending Chicago TRACON
02:11PM 41.8833 -88.1000 270° West 273 314 5,000 -1,560 Descending Chicago TRACON
02:12PM 41.8844 -88.1964 271° West 272 313 4,000 -540 Descending Chicago Center
02:13PM 41.9439 -88.2336 335° Northwest 266 306 4,000  Level Chicago Center
02:14PM 41.9733 -88.1650 60° Northeast 261 300 4,100 -720 Climbing Chicago Center
02:15PM 41.9667 -88.0667 95° East 244 281 2,600 -1,260 Descending Chicago TRACON
02:16PM 41.9667 -87.9833 90° East 174 200 1,600 -900 Descending Chicago TRACON
02:17PM 41.9667 -87.9333 90° East 141 162 800 -840 Descending Chicago TRACON
02:19PM 41.9667 -87.9000 73° East  Level FlightAware Approximate
02:26PM 41.9817 -87.9067 73° East  Level Estimated